createdAt,value
2019-02-25T00:02:20.022Z,84.50
2019-02-25T00:07:27.687Z,85.10
2019-02-25T00:12:35.010Z,85.80
2019-02-25T00:17:42.686Z,87.80
2019-02-25T00:22:49.314Z,87.30
2019-02-25T00:27:56.830Z,87.90
2019-02-25T00:33:08.899Z,89.10
2019-02-25T00:38:16.196Z,87.80
2019-02-25T00:43:23.858Z,87.80
2019-02-25T00:48:30.991Z,88.10
2019-02-25T00:53:37.692Z,89.20
2019-02-25T00:58:44.084Z,88.70
2019-02-25T01:03:51.278Z,88.20
2019-02-25T01:08:57.415Z,87.60
2019-02-25T01:14:04.612Z,87.20
2019-02-25T01:19:12.149Z,86.70
2019-02-25T01:24:19.529Z,86.30
2019-02-25T01:29:26.606Z,85.90
2019-02-25T01:34:33.383Z,85.70
2019-02-25T01:39:40.966Z,85.80
2019-02-25T01:44:48.527Z,85.90
2019-02-25T01:49:55.397Z,86.50
2019-02-25T01:55:02.854Z,86.80
2019-02-25T02:00:12.150Z,87.20
2019-02-25T02:05:19.570Z,87.60
2019-02-25T02:10:26.119Z,88.10
2019-02-25T02:15:33.163Z,88.50
2019-02-25T02:20:59.321Z,88.70
2019-02-25T02:26:05.806Z,89.10
2019-02-25T02:31:15.147Z,89.70
2019-02-25T02:36:21.143Z,90.70
2019-02-25T02:41:27.417Z,89.90
2019-02-25T02:47:06.969Z,89.60
2019-02-25T02:52:13.955Z,89.60
2019-02-25T02:57:25.812Z,91.40
2019-02-25T03:02:33.143Z,96.00
2019-02-25T03:07:40.614Z,97.80
2019-02-25T03:12:48.172Z,99.60
2019-02-25T03:17:55.566Z,99.60
2019-02-25T03:23:02.442Z,99.60
2019-02-25T03:28:09.200Z,99.60
2019-02-25T03:33:15.668Z,99.60
2019-02-25T03:38:22.247Z,99.60
2019-02-25T03:43:29.372Z,99.60
2019-02-25T03:48:36.780Z,99.60
2019-02-25T03:53:44.004Z,99.60
2019-02-25T03:58:51.262Z,99.60
2019-02-25T04:03:58.211Z,99.60
2019-02-25T04:09:07.129Z,99.60
2019-02-25T04:14:13.829Z,99.60
2019-02-25T04:19:21.458Z,99.60
2019-02-25T04:24:28.152Z,99.60
2019-02-25T04:29:35.282Z,99.60
2019-02-25T04:35:03.181Z,99.60
2019-02-25T04:40:11.767Z,99.60
2019-02-25T04:45:18.287Z,99.60
2019-02-25T04:50:24.896Z,99.60
2019-02-25T04:55:31.167Z,99.60
2019-02-25T05:00:37.345Z,99.60
2019-02-25T05:05:44.189Z,99.60
2019-02-25T05:10:51.407Z,99.60
2019-02-25T05:15:58.685Z,99.60
2019-02-25T05:21:05.630Z,99.60
2019-02-25T05:26:15.804Z,99.60
2019-02-25T05:31:21.927Z,99.60
2019-02-25T05:36:29.090Z,99.60
2019-02-25T05:41:36.422Z,99.60
2019-02-25T05:46:46.281Z,99.60
2019-02-25T05:51:52.577Z,99.60
2019-02-25T05:57:00.490Z,99.60
2019-02-25T06:02:08.040Z,99.60
2019-02-25T06:07:15.061Z,99.60
2019-02-25T06:12:21.107Z,99.60
2019-02-25T06:17:28.362Z,99.60
2019-02-25T06:22:38.598Z,99.60
2019-02-25T06:27:46.020Z,99.60
2019-02-25T06:32:53.496Z,99.60
2019-02-25T06:38:00.503Z,99.60
2019-02-25T06:43:08.158Z,99.60
2019-02-25T06:48:14.795Z,99.60
2019-02-25T06:53:22.261Z,99.60
2019-02-25T06:58:29.863Z,99.60
2019-02-25T07:03:35.659Z,99.60
2019-02-25T07:09:06.581Z,99.60
2019-02-25T07:14:50.818Z,99.60
2019-02-25T07:20:18.404Z,99.60
2019-02-25T07:25:39.719Z,99.60
2019-02-25T07:31:03.709Z,99.60
2019-02-25T07:36:28.390Z,99.60
2019-02-25T07:41:54.833Z,99.60
2019-02-25T07:47:20.864Z,99.60
2019-02-25T07:52:44.662Z,99.60
2019-02-25T07:58:15.712Z,99.60
2019-02-25T08:03:44.621Z,99.60
2019-02-25T08:09:16.153Z,99.60
2019-02-25T08:14:41.896Z,99.60
2019-02-25T08:20:01.878Z,99.60
2019-02-25T08:25:27.055Z,99.60
2019-02-25T08:30:49.280Z,99.60
2019-02-25T08:36:50.623Z,99.60
2019-02-25T08:42:04.953Z,99.40
2019-02-25T08:47:24.238Z,98.70
2019-02-25T08:52:30.832Z,99.40
2019-02-25T08:57:37.760Z,98.50
2019-02-25T09:02:45.551Z,97.50
2019-02-25T09:07:52.240Z,97.60
2019-02-25T09:13:01.115Z,98.10
2019-02-25T09:18:06.320Z,97.20
2019-02-25T09:23:15.612Z,97.30
2019-02-25T09:28:22.722Z,96.20
2019-02-25T09:33:30.210Z,95.60
2019-02-25T09:38:36.472Z,95.50
2019-02-25T09:43:42.971Z,94.60
2019-02-25T09:48:48.847Z,93.80
2019-02-25T09:53:54.678Z,92.40
2019-02-25T09:59:00.899Z,93.40
2019-02-25T10:04:08.899Z,93.20
2019-02-25T10:09:15.049Z,92.50
2019-02-25T10:14:21.153Z,92.00
2019-02-25T10:19:27.358Z,91.70
2019-02-25T10:24:33.582Z,90.10
2019-02-25T10:29:41.889Z,89.40
2019-02-25T10:34:48.777Z,89.60
2019-02-25T10:39:55.802Z,88.80
2019-02-25T10:45:04.818Z,88.70
2019-02-25T10:50:12.625Z,88.20
2019-02-25T10:55:24.541Z,88.70
2019-02-25T11:00:31.341Z,88.10
2019-02-25T11:05:38.985Z,83.40
2019-02-25T11:11:08.149Z,79.80
2019-02-25T11:16:16.450Z,76.80
2019-02-25T11:21:24.998Z,74.30
2019-02-25T11:26:32.930Z,72.40
2019-02-25T11:31:41.847Z,70.90
2019-02-25T11:36:50.820Z,68.70
2019-02-25T11:41:57.070Z,68.80
2019-02-25T11:47:05.203Z,68.40
2019-02-25T11:52:13.748Z,66.90
2019-02-25T11:57:21.145Z,66.00
2019-02-25T12:02:28.878Z,66.40
2019-02-25T12:07:35.119Z,66.00
2019-02-25T12:12:43.477Z,65.80
2019-02-25T12:17:49.627Z,64.10
2019-02-25T12:22:55.483Z,63.80
2019-02-25T12:28:02.637Z,63.00
2019-02-25T12:33:09.847Z,63.80
2019-02-25T12:38:17.195Z,64.00
2019-02-25T12:43:23.633Z,64.30
2019-02-25T12:48:30.844Z,64.50
2019-02-25T12:53:37.824Z,63.80
2019-02-25T12:58:44.223Z,62.90
2019-02-25T13:03:56.106Z,65.30
2019-02-25T13:09:02.073Z,66.10
2019-02-25T13:19:25.831Z,72.60
2019-02-25T13:24:34.672Z,74.00
2019-02-25T13:29:41.459Z,75.90
2019-02-25T13:34:48.623Z,77.10
2019-02-25T13:39:55.455Z,78.40
2019-02-25T13:45:05.431Z,78.00
2019-02-25T13:50:12.937Z,78.10
2019-02-25T13:55:19.023Z,77.60
2019-02-25T14:00:24.916Z,77.80
2019-02-25T14:05:31.606Z,77.80
2019-02-25T14:10:47.088Z,78.00
2019-02-25T14:15:53.893Z,78.20
2019-02-25T14:21:00.231Z,78.30
2019-02-25T14:26:06.641Z,78.60
2019-02-25T14:31:14.057Z,79.80
2019-02-25T14:36:21.954Z,79.20
2019-02-25T14:41:28.588Z,79.20
2019-02-25T14:46:35.946Z,79.20
2019-02-25T14:51:43.263Z,79.30
2019-02-25T14:56:50.285Z,79.90
2019-02-25T15:01:59.225Z,79.70
2019-02-25T15:07:08.564Z,80.10
2019-02-25T15:12:15.846Z,80.20
2019-02-25T15:17:23.705Z,80.00
2019-02-25T15:22:30.154Z,81.90
2019-02-25T15:27:38.685Z,78.20
2019-02-25T15:32:54.849Z,77.40
2019-02-25T15:38:00.076Z,78.10
2019-02-25T15:43:13.200Z,80.80
2019-02-25T15:48:20.326Z,80.40
2019-02-25T15:53:29.358Z,82.70
2019-02-25T15:58:38.058Z,84.00
2019-02-25T16:03:44.663Z,85.00
2019-02-25T16:08:53.967Z,86.80
2019-02-25T16:14:02.484Z,86.30
2019-02-25T16:19:09.532Z,83.90
2019-02-25T16:24:18.770Z,84.30
2019-02-25T16:29:26.593Z,85.60
2019-02-25T16:34:34.143Z,87.60
2019-02-25T16:39:42.408Z,87.90
2019-02-25T16:44:50.171Z,88.00
2019-02-25T16:49:58.576Z,88.90
2019-02-25T16:55:06.939Z,89.00
2019-02-25T17:00:29.622Z,89.60
2019-02-25T17:05:37.920Z,90.80
2019-02-25T17:10:44.292Z,91.30
2019-02-25T17:15:52.228Z,91.40
2019-02-25T17:20:59.885Z,91.70
2019-02-25T17:26:09.945Z,92.70
2019-02-25T17:31:16.332Z,93.40
2019-02-25T17:36:24.053Z,93.50
2019-02-25T17:41:30.743Z,93.10
2019-02-25T17:46:38.696Z,93.00
2019-02-25T17:51:45.076Z,93.40
2019-02-25T17:57:12.014Z,94.10
2019-02-25T18:02:20.241Z,94.40
2019-02-25T18:07:29.222Z,94.50
2019-02-25T18:12:36.389Z,94.40
2019-02-25T18:17:45.367Z,94.70
2019-02-25T18:22:53.695Z,94.80
2019-02-25T18:28:01.790Z,94.40
2019-02-25T18:33:11.154Z,94.50
2019-02-25T18:38:17.574Z,95.00
2019-02-25T18:43:26.296Z,95.80
2019-02-25T18:48:32.389Z,96.20
2019-02-25T18:53:38.861Z,96.20
2019-02-25T18:58:45.334Z,96.40
2019-02-25T19:03:54.673Z,96.30
2019-02-25T19:09:01.968Z,96.40
2019-02-25T19:14:10.614Z,96.90
2019-02-25T19:19:19.225Z,97.20
2019-02-25T19:24:26.754Z,97.30
2019-02-25T19:29:33.244Z,97.60
2019-02-25T19:34:40.697Z,98.00
2019-02-25T19:39:50.150Z,98.50
2019-02-25T19:44:58.564Z,98.40
2019-02-25T19:50:09.800Z,98.20
2019-02-25T19:55:18.345Z,98.00
2019-02-25T20:00:30.255Z,98.20
2019-02-25T20:05:41.122Z,98.60
2019-02-25T20:10:47.335Z,98.70
2019-02-25T20:15:55.772Z,99.00
2019-02-25T20:21:06.463Z,99.00
2019-02-25T20:26:13.474Z,99.10
2019-02-25T20:31:21.075Z,99.30
2019-02-25T20:36:28.995Z,99.60
2019-02-25T20:41:34.989Z,99.60
2019-02-25T20:46:41.070Z,99.60
2019-02-25T20:51:50.087Z,99.60
2019-02-25T20:56:56.828Z,99.60
2019-02-25T21:02:07.186Z,99.60
2019-02-25T21:07:13.272Z,99.60
2019-02-25T21:12:20.215Z,99.60
2019-02-25T21:17:28.577Z,99.60
2019-02-25T21:22:38.036Z,99.60
2019-02-25T21:27:46.232Z,99.60
2019-02-25T21:32:54.367Z,99.60
2019-02-25T21:38:01.148Z,99.60
2019-02-25T21:43:07.199Z,99.60
2019-02-25T21:48:13.196Z,99.60
2019-02-25T21:53:19.486Z,99.60
2019-02-25T21:58:27.602Z,99.60
2019-02-25T22:03:54.596Z,99.60
2019-02-25T22:09:02.995Z,99.60
2019-02-25T22:14:12.295Z,99.60
2019-02-25T22:19:20.443Z,99.60
2019-02-25T22:24:30.022Z,99.60
2019-02-25T22:29:38.273Z,99.60
2019-02-25T22:34:44.059Z,99.60
2019-02-25T22:39:52.588Z,99.60
2019-02-25T22:44:59.866Z,99.60
2019-02-25T22:50:08.669Z,99.60
2019-02-25T22:55:17.347Z,99.60
2019-02-25T23:00:50.715Z,99.60
2019-02-25T23:05:57.712Z,99.60
2019-02-25T23:11:04.965Z,99.60
2019-02-25T23:16:13.367Z,99.60
2019-02-25T23:21:24.218Z,99.60
2019-02-25T23:26:29.987Z,99.60
2019-02-25T23:31:36.075Z,99.60
2019-02-25T23:36:44.796Z,99.60
2019-02-25T23:41:50.422Z,99.60
2019-02-25T23:46:59.694Z,99.60
2019-02-25T23:52:04.250Z,99.60
2019-02-25T23:57:11.030Z,99.60
